Time;durP1;ratioP1;P1;durP2;ratioP2;P2;SDS_P1;SDS_P2;PMS_P1;PMS_P2;Temp;Humidity;BMP_temperature;BMP_pressure;BME280_temperature;BME280_humidity;BME280_pressure;Samples;Min_cycle;Max_cycle;Signal;HPM_P1;HPM_P2
2021/12/03 00:02:04;;;;;;;7.90;5.55;;;;;;;;;;5034064;28;20178;-70
2021/12/03 00:04:29;;;;;;;5.95;5.15;;;;;;;;;;5033741;28;20209;-71
2021/12/03 00:06:55;;;;;;;6.15;5.03;;;;;;;;;;5034470;28;20277;-71
2021/12/03 00:09:21;;;;;;;6.40;5.40;;;;;;;;;;5033869;28;20312;-72
2021/12/03 00:11:46;;;;;;;6.38;4.80;;;;;;;;;;5033445;28;20676;-70
2021/12/03 00:14:11;;;;;;;7.03;4.93;;;;;;;;;;5033273;28;20261;-71
2021/12/03 00:16:36;;;;;;;5.90;4.85;;;;;;;;;;5033341;28;20610;-71
2021/12/03 00:19:02;;;;;;;7.50;5.25;;;;;;;;;;5033285;28;20177;-71
2021/12/03 00:21:27;;;;;;;6.72;4.93;;;;;;;;;;5031990;28;20194;-71
2021/12/03 00:23:53;;;;;;;7.05;4.63;;;;;;;;;;5033221;28;20221;-71
2021/12/03 00:26:18;;;;;;;5.63;4.57;;;;;;;;;;5033167;28;20198;-71
2021/12/03 00:28:43;;;;;;;4.68;4.18;;;;;;;;;;5033120;28;20178;-71
2021/12/03 00:31:09;;;;;;;5.70;4.78;;;;;;;;;;5033017;28;20167;-71
2021/12/03 00:33:35;;;;;;;12.02;8.20;;;;;;;;;;5032817;28;20202;-71
2021/12/03 00:36:05;;;;;;;18.85;12.60;;;;;;;;;;5033223;28;20239;-70
2021/12/03 00:38:35;;;;;;;20.15;12.57;;;;;;;;;;5030767;28;20258;-71
2021/12/03 00:41:01;;;;;;;23.65;13.73;;;;;;;;;;5033092;28;20154;-71
2021/12/03 00:43:26;;;;;;;23.02;14.80;;;;;;;;;;5032658;28;20198;-71
2021/12/03 00:45:54;;;;;;;20.73;14.73;;;;;;;;;;5033260;28;20177;-71
2021/12/03 00:48:19;;;;;;;21.00;12.57;;;;;;;;;;5032707;28;20166;-71
2021/12/03 00:50:44;;;;;;;21.48;13.02;;;;;;;;;;5033051;28;20158;-71
2021/12/03 00:53:09;;;;;;;18.45;12.27;;;;;;;;;;5032790;28;20710;-71
2021/12/03 00:55:35;;;;;;;19.50;14.07;;;;;;;;;;5032565;28;20173;-71
2021/12/03 00:58:00;;;;;;;27.80;15.40;;;;;;;;;;5032744;28;20253;-71
2021/12/03 01:00:28;;;;;;;28.75;17.10;;;;;;;;;;5032443;28;20167;-71
2021/12/03 01:02:54;;;;;;;31.40;17.40;;;;;;;;;;5032577;28;20170;-71
2021/12/03 01:05:20;;;;;;;32.97;18.33;;;;;;;;;;5032415;28;20250;-70
2021/12/03 01:07:45;;;;;;;38.85;21.05;;;;;;;;;;5032631;28;20263;-71
2021/12/03 01:10:10;;;;;;;31.35;20.25;;;;;;;;;;5032299;28;20162;-71
2021/12/03 01:12:37;;;;;;;31.73;18.98;;;;;;;;;;5032312;28;20185;-71
2021/12/03 01:15:03;;;;;;;28.85;19.10;;;;;;;;;;5032157;28;20198;-70
2021/12/03 01:17:29;;;;;;;32.95;18.85;;;;;;;;;;5032132;28;20257;-71
2021/12/03 01:19:54;;;;;;;30.10;18.42;;;;;;;;;;5032163;28;20270;-71
2021/12/03 01:22:19;;;;;;;32.25;19.08;;;;;;;;;;5032120;28;20171;-71
2021/12/03 01:24:45;;;;;;;30.08;19.60;;;;;;;;;;5032232;28;20675;-71
2021/12/03 01:27:10;;;;;;;36.67;19.67;;;;;;;;;;5032695;28;20225;-71
2021/12/03 01:29:35;;;;;;;25.75;17.90;;;;;;;;;;5032018;28;20644;-71
2021/12/03 01:32:01;;;;;;;27.98;17.00;;;;;;;;;;5032072;28;20194;-70
2021/12/03 01:34:26;;;;;;;31.13;18.50;;;;;;;;;;5031927;28;20212;-70
2021/12/03 01:36:51;;;;;;;20.88;14.93;;;;;;;;;;5031966;28;20224;-71
2021/12/03 01:39:17;;;;;;;21.08;13.85;;;;;;;;;;5032252;28;20181;-71
2021/12/03 01:41:42;;;;;;;24.73;14.20;;;;;;;;;;5032087;28;20555;-71
2021/12/03 01:44:08;;;;;;;22.45;13.82;;;;;;;;;;5031874;28;20189;-71
2021/12/03 01:46:34;;;;;;;24.63;13.95;;;;;;;;;;5032150;28;20185;-71
2021/12/03 01:48:59;;;;;;;18.55;13.00;;;;;;;;;;5032175;28;20612;-71
2021/12/03 01:51:25;;;;;;;19.30;12.38;;;;;;;;;;5035116;28;20702;-71
2021/12/03 01:53:50;;;;;;;19.33;12.88;;;;;;;;;;5036025;28;20166;-70
2021/12/03 01:56:16;;;;;;;19.13;12.95;;;;;;;;;;5036256;28;20174;-71
2021/12/03 01:58:42;;;;;;;15.57;10.52;;;;;;;;;;5035884;28;20634;-71
2021/12/03 02:01:09;;;;;;;17.70;11.77;;;;;;;;;;5035894;28;20169;-71
2021/12/03 02:03:36;;;;;;;15.57;9.85;;;;;;;;;;5036033;28;20202;-71
2021/12/03 02:06:03;;;;;;;15.48;10.30;;;;;;;;;;5035803;28;20245;-71
2021/12/03 02:08:30;;;;;;;22.58;13.18;;;;;;;;;;5036020;28;20167;-71
2021/12/03 02:10:56;;;;;;;24.42;13.70;;;;;;;;;;5036244;28;20173;-71
2021/12/03 02:13:21;;;;;;;22.27;12.68;;;;;;;;;;5035703;28;20166;-71
2021/12/03 02:15:46;;;;;;;24.35;13.85;;;;;;;;;;5035576;28;20684;-71
2021/12/03 02:18:13;;;;;;;26.55;15.57;;;;;;;;;;5035602;28;20170;-71
2021/12/03 02:20:43;;;;;;;26.52;16.30;;;;;;;;;;5035551;28;20277;-71
2021/12/03 02:23:12;;;;;;;29.90;16.98;;;;;;;;;;5035351;28;20281;-71
2021/12/03 02:25:37;;;;;;;23.55;12.65;;;;;;;;;;5035438;28;20169;-71
2021/12/03 02:28:03;;;;;;;14.57;10.20;;;;;;;;;;5035451;28;20171;-71
2021/12/03 02:30:28;;;;;;;20.05;12.23;;;;;;;;;;5035350;28;20651;-71
2021/12/03 02:32:53;;;;;;;16.30;11.23;;;;;;;;;;5035222;28;20198;-71
2021/12/03 02:35:21;;;;;;;18.55;11.32;;;;;;;;;;5035472;28;20632;-71
2021/12/03 02:37:46;;;;;;;20.52;12.27;;;;;;;;;;5035187;28;20171;-71
2021/12/03 02:40:14;;;;;;;15.98;10.35;;;;;;;;;;5035193;28;20173;-71
2021/12/03 02:42:39;;;;;;;22.10;13.23;;;;;;;;;;5035382;28;20175;-71
2021/12/03 02:45:05;;;;;;;15.95;10.35;;;;;;;;;;5035004;28;20559;-71
2021/12/03 02:47:31;;;;;;;15.88;11.20;;;;;;;;;;5035243;28;20174;-71
2021/12/03 02:49:56;;;;;;;21.42;12.68;;;;;;;;;;5034993;28;20632;-71
2021/12/03 02:52:21;;;;;;;18.33;12.20;;;;;;;;;;5035096;28;20166;-71
2021/12/03 02:54:46;;;;;;;18.05;12.10;;;;;;;;;;5034879;28;20171;-71
2021/12/03 02:57:12;;;;;;;19.05;12.60;;;;;;;;;;5035082;28;20679;-71
2021/12/03 02:59:37;;;;;;;17.58;12.18;;;;;;;;;;5034790;28;20174;-71
2021/12/03 03:02:03;;;;;;;19.40;12.20;;;;;;;;;;5033964;28;20174;-71
2021/12/03 03:04:28;;;;;;;19.92;12.57;;;;;;;;;;5034610;28;20190;-71
2021/12/03 03:06:54;;;;;;;17.33;11.60;;;;;;;;;;5034653;28;20192;-71
2021/12/03 03:09:19;;;;;;;18.25;11.85;;;;;;;;;;5034615;28;20171;-71
2021/12/03 03:11:45;;;;;;;26.20;14.05;;;;;;;;;;5034570;28;20185;-71
2021/12/03 03:14:10;;;;;;;17.83;12.35;;;;;;;;;;5034417;28;20190;-71
2021/12/03 03:16:35;;;;;;;19.30;12.65;;;;;;;;;;5034804;28;20170;-71
2021/12/03 03:19:15;;;;;;;21.73;11.95;;;;;;;;;;5034413;28;20592;-71
2021/12/03 03:21:41;;;;;;;21.65;13.50;;;;;;;;;;5034348;28;20224;-71
2021/12/03 03:24:07;;;;;;;22.30;13.43;;;;;;;;;;5034578;28;20194;-71
2021/12/03 03:26:36;;;;;;;18.27;13.05;;;;;;;;;;5034381;28;20166;-71
2021/12/03 03:29:04;;;;;;;23.38;13.20;;;;;;;;;;5034206;28;20273;-71
2021/12/03 03:31:29;;;;;;;23.33;13.50;;;;;;;;;;5034223;28;20162;-71
2021/12/03 03:33:54;;;;;;;18.65;11.75;;;;;;;;;;5034486;28;20173;-71
2021/12/03 03:36:19;;;;;;;16.98;10.98;;;;;;;;;;5034156;28;20250;-71
2021/12/03 03:38:44;;;;;;;15.00;11.05;;;;;;;;;;5032892;28;20538;-71
2021/12/03 03:41:10;;;;;;;15.07;10.48;;;;;;;;;;5034045;28;20193;-71
2021/12/03 03:43:35;;;;;;;18.88;12.75;;;;;;;;;;5033908;28;20190;-71
2021/12/03 03:46:00;;;;;;;27.73;14.68;;;;;;;;;;5033909;28;20245;-71
2021/12/03 03:48:26;;;;;;;20.25;13.93;;;;;;;;;;5034144;28;20254;-71
2021/12/03 03:50:51;;;;;;;21.73;13.52;;;;;;;;;;5033869;28;20167;-71
2021/12/03 03:53:17;;;;;;;22.20;13.82;;;;;;;;;;5033822;28;20563;-71
2021/12/03 03:55:42;;;;;;;23.80;15.00;;;;;;;;;;5034015;28;20708;-71
2021/12/03 03:58:08;;;;;;;40.75;23.77;;;;;;;;;;5033968;28;20244;-71
2021/12/03 04:00:38;;;;;;;16.92;10.38;;;;;;;;;;5033828;28;20236;-71
2021/12/03 04:03:03;;;;;;;24.10;15.23;;;;;;;;;;5033714;28;20174;-71
2021/12/03 04:05:28;;;;;;;21.90;12.93;;;;;;;;;;5033840;28;20181;-71
2021/12/03 04:07:54;;;;;;;25.65;15.13;;;;;;;;;;5033523;28;20179;-71
2021/12/03 04:10:19;;;;;;;21.85;14.00;;;;;;;;;;5033515;28;20270;-71
2021/12/03 04:12:45;;;;;;;19.75;14.05;;;;;;;;;;5033471;28;20170;-71
2021/12/03 04:15:11;;;;;;;22.23;13.93;;;;;;;;;;5033364;28;20577;-71
2021/12/03 04:17:37;;;;;;;16.38;10.63;;;;;;;;;;5033346;28;20243;-71
2021/12/03 04:20:03;;;;;;;19.77;11.55;;;;;;;;;;5033476;28;20254;-71
2021/12/03 04:22:28;;;;;;;18.25;12.07;;;;;;;;;;5033225;28;20615;-71
2021/12/03 04:24:54;;;;;;;19.67;11.88;;;;;;;;;;5033402;28;20210;-71
2021/12/03 04:27:20;;;;;;;15.65;11.65;;;;;;;;;;5033152;28;20174;-70
2021/12/03 04:29:45;;;;;;;20.08;11.18;;;;;;;;;;5033808;28;20170;-70
2021/12/03 04:32:12;;;;;;;17.23;10.23;;;;;;;;;;5032989;28;20663;-71
2021/12/03 04:34:37;;;;;;;12.43;9.70;;;;;;;;;;5032993;28;20193;-71
2021/12/03 04:37:02;;;;;;;10.05;7.68;;;;;;;;;;5033001;28;20570;-71
2021/12/03 04:39:28;;;;;;;11.95;7.50;;;;;;;;;;5033178;28;20174;-71
2021/12/03 04:41:53;;;;;;;23.92;14.57;;;;;;;;;;5032885;28;20186;-71
2021/12/03 04:44:18;;;;;;;19.58;13.35;;;;;;;;;;5032785;28;20233;-71
2021/12/03 04:46:43;;;;;;;15.32;10.02;;;;;;;;;;5032791;28;20176;-70
2021/12/03 04:49:09;;;;;;;16.08;11.23;;;;;;;;;;5032747;28;20228;-71
2021/12/03 04:51:35;;;;;;;15.70;11.30;;;;;;;;;;5032999;28;20560;-70
2021/12/03 04:54:00;;;;;;;17.48;10.55;;;;;;;;;;5032952;28;20201;-70
2021/12/03 04:56:26;;;;;;;17.80;11.07;;;;;;;;;;5032636;28;20644;-71
2021/12/03 04:58:51;;;;;;;18.65;11.00;;;;;;;;;;5032780;28;20178;-71
2021/12/03 05:01:16;;;;;;;16.65;12.57;;;;;;;;;;5032500;28;20175;-71
2021/12/03 05:03:41;;;;;;;14.20;10.90;;;;;;;;;;5032544;28;20245;-71
2021/12/03 05:06:09;;;;;;;16.40;10.10;;;;;;;;;;5032376;28;20185;-71
2021/12/03 05:08:35;;;;;;;12.88;9.43;;;;;;;;;;5032958;28;20206;-71
2021/12/03 05:11:00;;;;;;;11.40;8.88;;;;;;;;;;5032510;28;20193;-71
2021/12/03 05:13:28;;;;;;;12.07;8.20;;;;;;;;;;5032331;28;20182;-70
2021/12/03 05:15:54;;;;;;;12.65;8.90;;;;;;;;;;5032262;28;20200;-71
2021/12/03 05:18:20;;;;;;;30.15;19.10;;;;;;;;;;5032259;28;20257;-71
2021/12/03 05:20:47;;;;;;;30.48;18.50;;;;;;;;;;5032165;28;20679;-70
2021/12/03 05:23:12;;;;;;;29.73;18.02;;;;;;;;;;5032076;28;20198;-71
2021/12/03 05:25:38;;;;;;;25.30;14.27;;;;;;;;;;5031526;28;20261;-71
2021/12/03 05:28:04;;;;;;;34.97;23.35;;;;;;;;;;5032755;28;20178;-71
2021/12/03 05:30:30;;;;;;;25.35;16.80;;;;;;;;;;5032298;28;20166;-71
2021/12/03 05:32:55;;;;;;;17.63;11.40;;;;;;;;;;5031973;28;20222;-71
2021/12/03 05:35:21;;;;;;;17.15;13.05;;;;;;;;;;5032254;28;20183;-71
2021/12/03 05:37:46;;;;;;;20.10;13.43;;;;;;;;;;5032277;28;20644;-71
2021/12/03 05:40:12;;;;;;;22.30;15.90;;;;;;;;;;5032291;28;20211;-70
2021/12/03 05:42:38;;;;;;;101.10;54.05;;;;;;;;;;5031941;28;20170;-71
2021/12/03 05:45:05;;;;;;;42.53;23.95;;;;;;;;;;5032097;28;20217;-71
2021/12/03 05:47:30;;;;;;;46.95;30.30;;;;;;;;;;5031788;28;20249;-71
2021/12/03 05:49:55;;;;;;;31.23;21.40;;;;;;;;;;5032149;28;20202;-71
2021/12/03 05:52:21;;;;;;;34.70;20.83;;;;;;;;;;5032115;28;20268;-71
2021/12/03 05:54:46;;;;;;;30.00;18.92;;;;;;;;;;5032143;28;20696;-71
2021/12/03 05:57:12;;;;;;;33.30;20.70;;;;;;;;;;5031837;28;20174;-70
2021/12/03 05:59:37;;;;;;;31.05;19.40;;;;;;;;;;5031682;28;20202;-70
2021/12/03 06:02:02;;;;;;;35.05;21.08;;;;;;;;;;5032002;28;20174;-71
2021/12/03 06:04:29;;;;;;;43.35;26.10;;;;;;;;;;5031687;28;20197;-71
2021/12/03 06:06:54;;;;;;;49.70;26.42;;;;;;;;;;5032255;28;20228;-70
2021/12/03 06:09:19;;;;;;;43.63;27.50;;;;;;;;;;5032151;28;20170;-71
2021/12/03 06:11:45;;;;;;;45.13;28.25;;;;;;;;;;5031813;28;20209;-71
2021/12/03 06:14:10;;;;;;;52.60;32.78;;;;;;;;;;5031576;28;20248;-71
2021/12/03 06:16:35;;;;;;;42.08;27.20;;;;;;;;;;5031922;28;20261;-71
2021/12/03 06:19:01;;;;;;;43.75;27.35;;;;;;;;;;5031633;28;20178;-71
2021/12/03 06:21:26;;;;;;;42.05;25.58;;;;;;;;;;5031538;28;20182;-70
2021/12/03 06:23:51;;;;;;;42.95;27.85;;;;;;;;;;5031706;28;20205;-70
2021/12/03 06:26:16;;;;;;;58.97;32.10;;;;;;;;;;5031569;28;20660;-71
2021/12/03 06:28:42;;;;;;;47.83;27.65;;;;;;;;;;5031713;28;20276;-71
2021/12/03 06:31:07;;;;;;;56.85;32.72;;;;;;;;;;5031809;28;20242;-71
2021/12/03 06:33:33;;;;;;;52.05;32.05;;;;;;;;;;5031394;28;20209;-71
2021/12/03 06:35:58;;;;;;;49.55;31.08;;;;;;;;;;5030752;28;20610;-71
2021/12/03 06:38:24;;;;;;;49.38;32.53;;;;;;;;;;5035245;28;20174;-71
2021/12/03 06:40:50;;;;;;;53.85;30.58;;;;;;;;;;5033892;28;20640;-71
2021/12/03 06:43:16;;;;;;;52.63;30.70;;;;;;;;;;5035313;28;20186;-71
2021/12/03 06:45:41;;;;;;;63.00;33.10;;;;;;;;;;5035422;28;20241;-71
2021/12/03 06:48:07;;;;;;;48.63;28.77;;;;;;;;;;5034953;28;20213;-70
2021/12/03 06:50:32;;;;;;;55.05;31.52;;;;;;;;;;5035269;28;20202;-70
2021/12/03 06:53:10;;;;;;;70.15;32.33;;;;;;;;;;5035205;28;20257;-70
2021/12/03 06:55:46;;;;;;;62.67;32.58;;;;;;;;;;5034890;28;20147;-70
2021/12/03 06:58:13;;;;;;;62.17;35.13;;;;;;;;;;5034961;28;20154;-71
2021/12/03 07:00:38;;;;;;;56.25;34.50;;;;;;;;;;5034744;28;20643;-71
2021/12/03 07:03:04;;;;;;;64.85;37.33;;;;;;;;;;5034877;28;20186;-70
2021/12/03 07:05:29;;;;;;;78.82;41.80;;;;;;;;;;5034707;28;20619;-70
2021/12/03 07:07:54;;;;;;;70.40;41.40;;;;;;;;;;5034667;28;20696;-70
2021/12/03 07:10:20;;;;;;;74.78;40.55;;;;;;;;;;5034840;28;20194;-71
2021/12/03 07:12:45;;;;;;;86.53;46.15;;;;;;;;;;5034842;28;20644;-71
2021/12/03 07:15:11;;;;;;;79.43;43.88;;;;;;;;;;5034569;28;20579;-71
2021/12/03 07:17:36;;;;;;;96.13;48.47;;;;;;;;;;5034748;28;20320;-70
2021/12/03 07:20:02;;;;;;;85.72;46.13;;;;;;;;;;5034691;28;20578;-70
2021/12/03 07:22:28;;;;;;;82.93;43.65;;;;;;;;;;5034389;28;20639;-70
2021/12/03 07:24:53;;;;;;;80.07;44.60;;;;;;;;;;5034257;28;20191;-70
2021/12/03 07:27:19;;;;;;;82.05;42.33;;;;;;;;;;5034761;28;20230;-70
2021/12/03 07:29:47;;;;;;;79.40;45.03;;;;;;;;;;5034490;28;20539;-70
2021/12/03 07:32:13;;;;;;;132.43;71.43;;;;;;;;;;5034115;28;20724;-71
2021/12/03 07:34:38;;;;;;;150.05;77.90;;;;;;;;;;5034085;28;20177;-70
2021/12/03 07:37:04;;;;;;;119.78;65.65;;;;;;;;;;5034131;28;20179;-70
2021/12/03 07:39:29;;;;;;;85.35;46.70;;;;;;;;;;5034076;28;20181;-70
2021/12/03 07:41:57;;;;;;;79.22;44.67;;;;;;;;;;5034007;28;20170;-70
2021/12/03 07:44:23;;;;;;;67.32;37.15;;;;;;;;;;5033894;28;20202;-71
2021/12/03 07:46:48;;;;;;;46.08;28.75;;;;;;;;;;5033910;28;20715;-71
2021/12/03 07:49:13;;;;;;;52.78;30.27;;;;;;;;;;5033842;28;20181;-70
2021/12/03 07:51:39;;;;;;;56.00;30.70;;;;;;;;;;5034129;28;20722;-70
2021/12/03 07:54:04;;;;;;;58.80;32.42;;;;;;;;;;5034148;28;20183;-70
2021/12/03 07:56:29;;;;;;;60.58;34.65;;;;;;;;;;5034567;28;20174;-70
2021/12/03 07:58:54;;;;;;;68.50;36.28;;;;;;;;;;5033737;28;20178;-70
2021/12/03 08:01:20;;;;;;;45.83;28.30;;;;;;;;;;5033742;28;20206;-71
2021/12/03 08:03:45;;;;;;;50.90;26.98;;;;;;;;;;5033552;28;20193;-72
2021/12/03 08:06:12;;;;;;;46.17;29.05;;;;;;;;;;5033534;28;20220;-70
2021/12/03 08:08:38;;;;;;;54.17;35.08;;;;;;;;;;5033507;28;20162;-71
2021/12/03 08:11:04;;;;;;;56.80;33.40;;;;;;;;;;5033716;28;20183;-71
2021/12/03 08:13:29;;;;;;;53.65;34.75;;;;;;;;;;5033725;28;20181;-71
2021/12/03 08:15:55;;;;;;;57.67;32.28;;;;;;;;;;5033331;28;20615;-71
2021/12/03 08:18:20;;;;;;;65.18;36.20;;;;;;;;;;5033355;28;20253;-71
2021/12/03 08:20:46;;;;;;;70.00;41.30;;;;;;;;;;5033264;28;20185;-70
2021/12/03 08:23:12;;;;;;;72.45;40.25;;;;;;;;;;5033170;28;20231;-71
2021/12/03 08:25:37;;;;;;;74.70;42.10;;;;;;;;;;5031983;28;20185;-71
2021/12/03 08:28:03;;;;;;;60.63;36.00;;;;;;;;;;5033189;28;20171;-71
2021/12/03 08:30:31;;;;;;;57.25;35.63;;;;;;;;;;5033314;28;20189;-71
2021/12/03 08:32:57;;;;;;;72.80;36.97;;;;;;;;;;5033012;28;20190;-72
2021/12/03 08:35:22;;;;;;;60.35;36.10;;;;;;;;;;5033246;28;20186;-71
2021/12/03 08:37:50;;;;;;;62.58;35.80;;;;;;;;;;5032909;28;20717;-71
2021/12/03 08:40:16;;;;;;;71.07;39.78;;;;;;;;;;5032722;28;20187;-72
2021/12/03 08:42:41;;;;;;;60.08;35.83;;;;;;;;;;5032904;28;20175;-72
2021/12/03 08:45:07;;;;;;;52.53;32.20;;;;;;;;;;5033041;28;20280;-72
2021/12/03 08:47:33;;;;;;;54.50;33.55;;;;;;;;;;5033073;28;20605;-72
2021/12/03 08:50:00;;;;;;;55.88;31.95;;;;;;;;;;5032770;28;20324;-71
2021/12/03 08:54:55;;;;;;;54.55;31.42;;;;;;;;;;5032949;28;20182;-71
2021/12/03 08:57:22;;;;;;;46.20;30.23;;;;;;;;;;5033088;28;20638;-71
2021/12/03 08:59:48;;;;;;;36.40;22.58;;;;;;;;;;5031799;28;20201;-71
2021/12/03 09:02:13;;;;;;;38.20;24.52;;;;;;;;;;5032765;28;20249;-71
2021/12/03 09:04:38;;;;;;;35.05;22.33;;;;;;;;;;5032703;28;20198;-71
2021/12/03 09:07:05;;;;;;;32.75;22.33;;;;;;;;;;5032483;28;20167;-71
2021/12/03 09:09:30;;;;;;;32.78;20.80;;;;;;;;;;5032561;28;20540;-71
2021/12/03 09:11:56;;;;;;;38.05;21.63;;;;;;;;;;5032275;28;20261;-71
2021/12/03 09:17:08;;;;;;;54.60;27.95;;;;;;;;;;5032596;28;20182;-71
2021/12/03 09:19:38;;;;;;;42.58;24.08;;;;;;;;;;5031055;28;20225;-72
2021/12/03 09:22:04;;;;;;;46.65;25.95;;;;;;;;;;5032145;28;20182;-72
2021/12/03 09:24:35;;;;;;;36.92;21.15;;;;;;;;;;5032378;28;20252;-72
2021/12/03 09:27:01;;;;;;;42.47;22.33;;;;;;;;;;5032462;28;20162;-71
2021/12/03 09:29:32;;;;;;;48.05;26.50;;;;;;;;;;5032413;28;20174;-72
2021/12/03 09:31:58;;;;;;;48.92;26.88;;;;;;;;;;5032165;28;20272;-72
2021/12/03 09:34:24;;;;;;;57.45;31.60;;;;;;;;;;5032320;28;20258;-72
2021/12/03 09:36:50;;;;;;;37.58;23.52;;;;;;;;;;5032313;28;20210;-72
2021/12/03 09:39:19;;;;;;;37.42;22.45;;;;;;;;;;5031991;28;20738;-72
2021/12/03 09:41:44;;;;;;;44.28;24.38;;;;;;;;;;5032009;28;20198;-72
2021/12/03 09:44:10;;;;;;;39.17;23.33;;;;;;;;;;5031966;28;20641;-71
2021/12/03 09:46:35;;;;;;;47.10;25.52;;;;;;;;;;5032180;28;20185;-71
2021/12/03 09:51:49;;;;;;;44.85;23.23;;;;;;;;;;5031884;28;20166;-71
2021/12/03 09:54:27;;;;;;;41.65;25.38;;;;;;;;;;5032244;28;20187;-71
2021/12/03 09:56:56;;;;;;;39.90;24.98;;;;;;;;;;5031841;28;20237;-71
2021/12/03 10:15:11;;;;;;;55.40;31.08;;;;;;;;;;5035686;28;20217;-72
2021/12/03 10:49:01;;;;;;;43.03;26.13;;;;;;;;;;5034948;28;20158;-72
2021/12/03 11:18:34;;;;;;;31.50;20.83;;;;;;;;;;5035026;28;20608;-72
2021/12/03 11:34:49;;;;;;;32.55;18.55;;;;;;;;;;5034717;28;20163;-71
2021/12/03 12:02:33;;;;;;;36.83;22.17;;;;;;;;;;5034221;28;20151;-73
2021/12/03 14:02:47;;;;;;;96.60;42.45;;;;;;;;;;5031781;28;20185;-72
2021/12/03 14:20:33;;;;;;;98.68;46.42;;;;;;;;;;5032265;28;20154;-71
2021/12/03 14:40:19;;;;;;;126.85;55.72;;;;;;;;;;5031993;28;20265;-71
2021/12/03 14:42:52;;;;;;;124.13;52.47;;;;;;;;;;5031426;28;20581;-72
2021/12/03 14:45:31;;;;;;;84.32;37.03;;;;;;;;;;5031657;28;20666;-72
2021/12/03 14:48:19;;;;;;;86.93;38.00;;;;;;;;;;5031317;28;20179;-71
2021/12/03 14:51:05;;;;;;;137.35;68.63;;;;;;;;;;5031259;28;20224;-72
2021/12/03 14:56:16;;;;;;;97.63;48.58;;;;;;;;;;5031662;28;20154;-71
2021/12/03 15:32:00;;;;;;;140.68;68.35;;;;;;;;;;5034456;28;20640;-71
2021/12/03 16:03:29;;;;;;;36.45;20.42;;;;;;;;;;5034375;28;20159;-71
2021/12/03 16:54:12;;;;;;;44.83;26.98;;;;;;;;;;5032726;28;20194;-72
2021/12/03 16:56:43;;;;;;;42.65;23.65;;;;;;;;;;5032935;28;20544;-72
2021/12/03 16:59:09;;;;;;;44.05;26.75;;;;;;;;;;5032635;28;20162;-72
2021/12/03 17:01:45;;;;;;;66.80;34.40;;;;;;;;;;5032603;28;20179;-72
2021/12/03 17:25:15;;;;;;;161.45;92.35;;;;;;;;;;5032447;28;20194;-72
2021/12/03 17:56:34;;;;;;;111.90;60.90;;;;;;;;;;5032186;28;20170;-72
2021/12/03 18:01:49;;;;;;;122.82;71.47;;;;;;;;;;5031894;28;20170;-72
2021/12/03 18:45:25;;;;;;;138.18;73.28;;;;;;;;;;5035806;28;20284;-72
2021/12/03 18:55:57;;;;;;;127.38;67.53;;;;;;;;;;5035316;28;20155;-71
2021/12/03 18:58:25;;;;;;;123.60;66.82;;;;;;;;;;5033718;28;20178;-72
2021/12/03 19:00:51;;;;;;;119.85;61.75;;;;;;;;;;5035058;28;20171;-71
2021/12/03 19:03:36;;;;;;;112.90;60.10;;;;;;;;;;5034895;28;20167;-71
2021/12/03 19:06:18;;;;;;;103.45;53.10;;;;;;;;;;5034867;28;20158;-71
2021/12/03 19:11:19;;;;;;;105.45;51.53;;;;;;;;;;5034994;28;20652;-72
2021/12/03 19:13:44;;;;;;;78.00;40.88;;;;;;;;;;5033388;28;20167;-72
2021/12/03 19:16:13;;;;;;;75.90;41.13;;;;;;;;;;5033679;28;20190;-71
2021/12/03 19:18:43;;;;;;;85.03;43.67;;;;;;;;;;5034482;28;20675;-71
2021/12/03 19:21:11;;;;;;;95.07;50.35;;;;;;;;;;5035298;28;20166;-71
2021/12/03 19:23:36;;;;;;;102.68;53.83;;;;;;;;;;5034387;28;20244;-72
2021/12/03 19:26:02;;;;;;;99.05;52.83;;;;;;;;;;5034611;28;20166;-72
2021/12/03 19:28:27;;;;;;;62.40;38.30;;;;;;;;;;5034550;28;20162;-71
2021/12/03 19:30:56;;;;;;;76.80;41.38;;;;;;;;;;5033087;28;20194;-71
2021/12/03 19:33:22;;;;;;;83.75;45.33;;;;;;;;;;5034202;28;20525;-71
2021/12/03 19:35:47;;;;;;;87.07;48.22;;;;;;;;;;5032923;28;20178;-71
2021/12/03 19:38:16;;;;;;;102.00;51.70;;;;;;;;;;5034196;28;20178;-71
2021/12/03 19:40:50;;;;;;;86.53;45.00;;;;;;;;;;5034088;28;20183;-71
2021/12/03 19:43:17;;;;;;;61.22;33.85;;;;;;;;;;5033921;28;20545;-71
2021/12/03 19:45:50;;;;;;;61.95;33.53;;;;;;;;;;5033928;28;20229;-71
2021/12/03 19:48:16;;;;;;;75.43;39.10;;;;;;;;;;5034107;28;20159;-71
2021/12/03 19:50:46;;;;;;;63.03;36.22;;;;;;;;;;5034002;28;20255;-71
2021/12/03 19:53:20;;;;;;;63.22;33.30;;;;;;;;;;5033900;28;20155;-71
2021/12/03 19:55:46;;;;;;;55.00;31.55;;;;;;;;;;5033870;28;20166;-71
2021/12/03 19:58:12;;;;;;;54.83;30.85;;;;;;;;;;5033803;28;20166;-72
2021/12/03 20:00:38;;;;;;;57.08;31.15;;;;;;;;;;5033871;28;20217;-72
2021/12/03 20:03:04;;;;;;;54.80;28.90;;;;;;;;;;5033757;28;20684;-71
2021/12/03 20:05:30;;;;;;;46.83;27.35;;;;;;;;;;5033630;28;20218;-71
2021/12/03 20:07:57;;;;;;;59.35;30.77;;;;;;;;;;5033643;28;20174;-71
2021/12/03 20:10:24;;;;;;;58.85;32.50;;;;;;;;;;5034018;28;20162;-71
2021/12/03 20:12:51;;;;;;;53.00;29.40;;;;;;;;;;5033525;28;20248;-72
2021/12/03 20:21:06;;;;;;;118.47;64.50;;;;;;;;;;5025091;28;20186;-71
2021/12/03 20:26:23;;;;;;;44.70;23.02;;;;;;;;;;5033603;28;20650;-71
2021/12/03 20:28:55;;;;;;;42.53;25.00;;;;;;;;;;5033552;28;20245;-71
2021/12/03 20:31:24;;;;;;;40.42;23.20;;;;;;;;;;5033040;28;20644;-70
2021/12/03 20:38:54;;;;;;;37.97;21.58;;;;;;;;;;5033388;28;20216;-72
2021/12/03 20:57:17;;;;;;;32.92;16.20;;;;;;;;;;5033048;28;20178;-71
2021/12/03 21:08:35;;;;;;;15.57;8.50;;;;;;;;;;5033116;28;20242;-72
2021/12/03 21:11:06;;;;;;;8.70;5.97;;;;;;;;;;5031310;28;20166;-72
2021/12/03 21:13:35;;;;;;;11.43;6.55;;;;;;;;;;5032536;28;20613;-72
2021/12/03 21:21:13;;;;;;;10.27;7.20;;;;;;;;;;5032849;28;20604;-72
2021/12/03 21:23:44;;;;;;;12.10;7.03;;;;;;;;;;5030918;28;20265;-72
2021/12/03 21:26:13;;;;;;;8.80;5.88;;;;;;;;;;5032270;28;20147;-71
2021/12/03 21:29:07;;;;;;;10.50;5.65;;;;;;;;;;5032446;28;20174;-72
2021/12/03 21:42:10;;;;;;;45.25;27.85;;;;;;;;;;5010272;28;20175;-71
2021/12/03 21:44:36;;;;;;;41.60;23.92;;;;;;;;;;5020153;28;20214;-71
2021/12/03 21:47:01;;;;;;;29.42;18.33;;;;;;;;;;5031907;28;20659;-71
2021/12/03 21:49:28;;;;;;;29.40;16.67;;;;;;;;;;5031877;28;20169;-71
2021/12/03 21:51:54;;;;;;;35.03;19.65;;;;;;;;;;5031903;28;20249;-71
2021/12/03 21:54:20;;;;;;;36.78;21.08;;;;;;;;;;5031852;28;20281;-71
2021/12/03 21:56:46;;;;;;;37.10;20.42;;;;;;;;;;5030597;28;20661;-71
2021/12/03 21:59:12;;;;;;;37.10;24.25;;;;;;;;;;5031832;28;20170;-72
2021/12/03 22:01:39;;;;;;;50.40;27.73;;;;;;;;;;5031879;28;20185;-72
2021/12/03 22:04:04;;;;;;;57.30;29.98;;;;;;;;;;5031692;28;20202;-72
2021/12/03 22:06:29;;;;;;;51.75;30.13;;;;;;;;;;5031752;28;20166;-71
2021/12/03 22:08:58;;;;;;;52.13;30.00;;;;;;;;;;5035980;28;20269;-71
2021/12/03 22:11:27;;;;;;;58.20;33.20;;;;;;;;;;5035824;28;20162;-71
2021/12/03 22:13:52;;;;;;;61.10;32.20;;;;;;;;;;5035665;28;20174;-72
2021/12/03 22:16:17;;;;;;;57.22;32.55;;;;;;;;;;5035713;28;20184;-72
2021/12/03 22:18:43;;;;;;;62.53;34.10;;;;;;;;;;5035646;28;20178;-72
2021/12/03 22:21:08;;;;;;;61.78;35.45;;;;;;;;;;5035572;28;20186;-71
2021/12/03 22:23:34;;;;;;;67.50;36.22;;;;;;;;;;5035459;28;20182;-71
2021/12/03 22:26:00;;;;;;;64.40;36.60;;;;;;;;;;5035784;28;20174;-71
2021/12/03 22:28:25;;;;;;;71.85;38.17;;;;;;;;;;5035756;28;20181;-71
2021/12/03 22:30:52;;;;;;;68.97;36.70;;;;;;;;;;5035425;28;20166;-71
2021/12/03 22:33:17;;;;;;;72.03;37.78;;;;;;;;;;5035236;28;20249;-73
2021/12/03 22:35:43;;;;;;;66.72;35.72;;;;;;;;;;5035310;28;20178;-71
2021/12/03 22:38:09;;;;;;;68.68;36.33;;;;;;;;;;5035314;28;20569;-71
2021/12/03 22:40:36;;;;;;;73.72;38.40;;;;;;;;;;5035549;28;20167;-71
2021/12/03 22:43:01;;;;;;;70.68;38.10;;;;;;;;;;5035560;28;20179;-72
2021/12/03 22:45:34;;;;;;;64.07;37.20;;;;;;;;;;5035576;28;20201;-71
2021/12/03 22:48:07;;;;;;;64.95;35.22;;;;;;;;;;5035183;28;20155;-72
2021/12/03 22:50:47;;;;;;;63.83;36.22;;;;;;;;;;5035265;28;20169;-72
2021/12/03 22:53:12;;;;;;;72.53;35.13;;;;;;;;;;5035629;28;20158;-72
2021/12/03 22:55:38;;;;;;;66.32;34.80;;;;;;;;;;5035286;28;20312;-72
2021/12/03 22:58:03;;;;;;;54.88;33.03;;;;;;;;;;5034931;28;20174;-72
2021/12/03 23:00:31;;;;;;;57.33;31.85;;;;;;;;;;5035211;28;20170;-72
2021/12/03 23:02:56;;;;;;;57.28;33.13;;;;;;;;;;5035081;28;20265;-71
2021/12/03 23:05:22;;;;;;;54.47;33.85;;;;;;;;;;5034783;28;20273;-71
2021/12/03 23:07:47;;;;;;;54.65;30.30;;;;;;;;;;5034772;28;20221;-70
2021/12/03 23:10:12;;;;;;;51.85;31.50;;;;;;;;;;5035031;28;20162;-72
2021/12/03 23:12:37;;;;;;;47.13;28.70;;;;;;;;;;5035110;28;20159;-72
2021/12/03 23:15:03;;;;;;;46.03;28.77;;;;;;;;;;5034605;28;20637;-71
2021/12/03 23:17:28;;;;;;;50.83;29.85;;;;;;;;;;5034530;28;20186;-72
2021/12/03 23:19:54;;;;;;;47.58;29.27;;;;;;;;;;5033344;28;20249;-72